VOHY/HYD METAR and TAF weather

Enter ICAO airport designator
Station Type Date Time Source
VOHY METAR 2022/05/24 12:00 UTC NOAA

VOHY 241200Z 26004KT 6000 FEW020 35/19 Q1007 NOSIG


Station Type Date Time Source
VOHY Decoded METAR 2022/05/24 12:00 UTC NOAA

Hyderabad Airport, India (VOHY) 17-27N 078-28E 545M
May 24, 2022 - 08:00 AM EDT / 2022.05.24 1200 UTC
Wind: from the W (260 degrees) at 5 MPH (4 KT):0
Visibility: 3 mile(s):0
Sky conditions: mostly clear
Temperature: 95 F (35 C)
Heat index: 98.4 F (36.9 C):1
Dew Point: 66 F (19 C)
Relative Humidity: 39%
Pressure (altimeter): 29.74 in. Hg (1007 hPa)
ob: VOHY 241200Z 26004KT 6000 FEW020 35/19 Q1007 NOSIG
cycle: 12

Station Type Date Time Source
VOHY TAF 2022/05/22 00:00 UTC NOAA

TAF VOHY 222300Z 2300/2309 23005KT 4000 HZ BR FEW015
BECMG 2305/2306 29010G20KT 6000 FEW015 SCT025

Example: see airport list